createdAt,value
2019-03-21T00:01:37.584Z,109.87
2019-03-21T00:04:11.630Z,108.03
2019-03-21T00:06:39.929Z,107.10
2019-03-21T00:09:10.335Z,104.78
2019-03-21T00:14:29.621Z,117.22
2019-03-21T00:16:57.843Z,107.55
2019-03-21T00:19:26.075Z,116.03
2019-03-21T00:21:54.311Z,117.25
2019-03-21T00:24:22.530Z,109.65
2019-03-21T00:26:50.749Z,111.28
2019-03-21T00:29:18.989Z,112.25
2019-03-21T00:31:47.221Z,111.22
2019-03-21T00:34:15.440Z,111.03
2019-03-21T00:36:43.679Z,102.72
2019-03-21T00:39:11.902Z,104.87
2019-03-21T00:41:40.128Z,103.10
2019-03-21T00:44:17.854Z,106.47
2019-03-21T00:46:38.694Z,103.67
2019-03-21T00:49:06.918Z,108.30
2019-03-21T00:51:35.139Z,110.47
2019-03-21T00:54:03.370Z,104.85
2019-03-21T00:56:31.606Z,103.57
2019-03-21T00:58:59.825Z,90.75
2019-03-21T01:01:28.046Z,107.35
2019-03-21T01:03:56.261Z,98.03
2019-03-21T01:06:24.482Z,97.95
2019-03-21T01:08:52.757Z,100.50
2019-03-21T01:11:21.333Z,111.50
2019-03-21T01:13:49.566Z,104.17
2019-03-21T01:16:17.798Z,101.45
2019-03-21T01:18:47.649Z,96.82
2019-03-21T01:21:15.884Z,103.53
2019-03-21T01:23:44.104Z,102.17
2019-03-21T01:26:14.001Z,99.47
2019-03-21T01:28:42.294Z,106.00
2019-03-21T01:31:10.521Z,105.10
2019-03-21T01:33:38.752Z,98.37
2019-03-21T01:36:07.920Z,104.63
2019-03-21T01:38:36.146Z,108.52
2019-03-21T01:41:07.633Z,102.03
2019-03-21T01:43:35.860Z,100.90
2019-03-21T01:46:07.341Z,98.62
2019-03-21T01:48:35.570Z,99.47
2019-03-21T01:51:03.793Z,96.40
2019-03-21T01:53:32.048Z,102.70
2019-03-21T01:56:00.260Z,91.17
2019-03-21T01:58:28.494Z,92.45
2019-03-21T02:00:57.387Z,94.05
2019-03-21T02:03:25.606Z,97.53
2019-03-21T02:05:54.742Z,92.85
2019-03-21T02:08:22.962Z,98.65
2019-03-21T02:10:51.195Z,85.72
2019-03-21T02:13:19.423Z,87.17
2019-03-21T02:15:47.645Z,91.25
2019-03-21T02:18:15.881Z,87.15
2019-03-21T02:20:44.094Z,87.72
2019-03-21T02:23:12.309Z,81.90
2019-03-21T02:25:42.083Z,94.87
2019-03-21T02:28:10.305Z,92.33
2019-03-21T02:30:40.952Z,93.42
2019-03-21T02:35:38.311Z,91.15
2019-03-21T02:38:06.550Z,89.83
2019-03-21T02:40:34.773Z,92.85
2019-03-21T02:43:03.008Z,85.13
2019-03-21T02:45:31.391Z,93.90
2019-03-21T02:47:59.631Z,84.80
2019-03-21T02:50:33.503Z,86.55
2019-03-21T02:53:02.162Z,90.03
2019-03-21T02:55:30.379Z,83.72
2019-03-21T02:57:58.613Z,86.02
2019-03-21T03:00:32.510Z,81.10
2019-03-21T03:03:01.214Z,89.15
2019-03-21T03:05:31.477Z,81.30
2019-03-21T03:08:00.161Z,82.35
2019-03-21T03:10:52.869Z,90.62
2019-03-21T03:13:21.085Z,77.37
2019-03-21T03:15:49.307Z,76.40
2019-03-21T03:18:19.467Z,81.65
2019-03-21T03:20:47.687Z,84.10
2019-03-21T03:23:15.902Z,78.83
2019-03-21T03:25:44.141Z,83.97
2019-03-21T03:28:24.113Z,84.07
2019-03-21T03:30:54.675Z,79.82
2019-03-21T03:33:22.912Z,77.72
2019-03-21T03:35:51.130Z,82.92
2019-03-21T03:38:19.368Z,86.67
2019-03-21T03:40:50.823Z,86.02
2019-03-21T03:43:19.060Z,81.47
2019-03-21T03:45:47.289Z,82.53
2019-03-21T03:48:15.500Z,87.60
2019-03-21T03:50:43.728Z,86.05
2019-03-21T03:53:11.944Z,83.58
2019-03-21T03:55:40.173Z,92.33
2019-03-21T03:58:11.670Z,84.13
2019-03-21T04:00:39.962Z,87.55
2019-03-21T04:03:08.194Z,94.52
2019-03-21T04:05:36.436Z,86.08
2019-03-21T04:08:05.395Z,90.90
2019-03-21T04:10:42.004Z,87.67
2019-03-21T04:13:10.231Z,91.17
2019-03-21T04:15:51.590Z,89.22
2019-03-21T04:18:08.389Z,84.00
2019-03-21T04:21:10.798Z,95.92
2019-03-21T04:23:39.018Z,89.28
2019-03-21T04:26:13.020Z,89.75
2019-03-21T04:28:42.786Z,87.50
2019-03-21T04:31:11.017Z,92.10
2019-03-21T04:33:39.320Z,89.40
2019-03-21T04:36:07.535Z,87.53
2019-03-21T04:38:35.762Z,88.65
2019-03-21T04:41:04.041Z,96.25
2019-03-21T04:43:32.257Z,85.00
2019-03-21T04:46:03.650Z,92.54
2019-03-21T04:48:30.424Z,83.04
2019-03-21T04:50:58.668Z,83.75
2019-03-21T04:53:26.890Z,85.42
2019-03-21T04:55:56.041Z,85.12
2019-03-21T04:58:24.269Z,84.95
2019-03-21T05:00:55.031Z,80.07
2019-03-21T05:05:55.711Z,78.70
2019-03-21T05:08:23.954Z,75.25
2019-03-21T05:10:52.181Z,81.60
2019-03-21T05:13:20.426Z,73.22
2019-03-21T05:15:50.962Z,73.83
2019-03-21T05:18:31.477Z,68.33
2019-03-21T05:21:01.140Z,61.40
2019-03-21T05:23:29.358Z,61.43
2019-03-21T05:25:57.591Z,61.98
2019-03-21T05:28:26.278Z,61.92
2019-03-21T05:31:22.230Z,53.33
2019-03-21T05:33:50.449Z,52.65
2019-03-21T05:36:18.712Z,53.13
2019-03-21T05:38:46.895Z,49.48
2019-03-21T05:41:15.140Z,50.52
2019-03-21T05:43:52.597Z,49.30
2019-03-21T05:46:26.408Z,47.93
2019-03-21T05:48:50.925Z,49.23
2019-03-21T05:51:19.165Z,49.30
2019-03-21T05:53:47.382Z,47.85
2019-03-21T05:56:15.608Z,53.47
2019-03-21T05:58:43.853Z,50.88
2019-03-21T06:01:12.907Z,51.33
2019-03-21T06:03:46.560Z,55.48
2019-03-21T06:06:20.941Z,54.33
2019-03-21T06:08:49.175Z,57.78
2019-03-21T06:11:17.410Z,61.48
2019-03-21T06:13:45.639Z,60.13
2019-03-21T06:16:13.879Z,56.13
2019-03-21T06:18:51.774Z,59.48
2019-03-21T06:21:25.717Z,59.18
2019-03-21T06:24:05.967Z,62.23
2019-03-21T06:27:14.892Z,61.93
2019-03-21T06:29:40.758Z,64.60
2019-03-21T06:32:09.025Z,63.92
2019-03-21T06:34:37.209Z,65.65
2019-03-21T06:37:05.429Z,63.20
2019-03-21T06:39:33.716Z,68.62
2019-03-21T06:42:01.942Z,59.33
2019-03-21T06:44:30.159Z,57.17
2019-03-21T06:46:58.377Z,61.15
2019-03-21T06:49:26.859Z,52.93
2019-03-21T06:51:55.081Z,58.75
2019-03-21T06:54:23.314Z,55.88
2019-03-21T06:56:51.534Z,50.33
2019-03-21T06:59:19.763Z,57.30
2019-03-21T07:01:48.144Z,59.05
2019-03-21T07:04:16.369Z,54.42
2019-03-21T07:06:44.609Z,57.48
2019-03-21T07:09:12.820Z,64.12
2019-03-21T07:11:41.054Z,56.60
2019-03-21T07:14:09.277Z,56.30
2019-03-21T07:16:37.507Z,59.40
2019-03-21T07:19:05.749Z,56.15
2019-03-21T07:21:33.991Z,60.43
2019-03-21T07:24:02.215Z,60.08
2019-03-21T07:26:30.433Z,60.73
2019-03-21T07:28:58.663Z,60.60
2019-03-21T07:31:27.301Z,66.22
2019-03-21T07:33:55.560Z,66.02
2019-03-21T07:36:26.149Z,72.87
2019-03-21T07:38:53.776Z,72.83
2019-03-21T07:41:21.994Z,76.50
2019-03-21T07:43:50.258Z,73.57
2019-03-21T07:46:18.502Z,68.30
2019-03-21T07:48:46.726Z,62.05
2019-03-21T07:51:15.207Z,56.70
2019-03-21T07:53:43.441Z,57.78
2019-03-21T07:56:11.668Z,50.70
2019-03-21T07:58:39.884Z,55.17
2019-03-21T08:01:08.112Z,56.10
2019-03-21T08:03:36.356Z,50.40
2019-03-21T08:06:04.572Z,55.78
2019-03-21T08:08:32.800Z,48.95
2019-03-21T08:11:01.013Z,48.43
2019-03-21T08:13:29.244Z,49.30
2019-03-21T08:15:57.576Z,45.53
2019-03-21T08:18:25.810Z,48.90
2019-03-21T08:20:58.498Z,47.13
2019-03-21T08:23:24.025Z,49.77
2019-03-21T08:25:52.193Z,46.73
2019-03-21T08:28:20.430Z,41.02
2019-03-21T08:31:07.115Z,45.33
2019-03-21T08:33:35.348Z,45.88
2019-03-21T08:36:03.572Z,48.67
2019-03-21T08:38:31.786Z,45.28
2019-03-21T08:41:00.094Z,53.28
2019-03-21T08:43:28.314Z,59.18
2019-03-21T08:45:56.544Z,53.02
2019-03-21T08:48:24.832Z,55.87
2019-03-21T08:50:53.043Z,56.13
2019-03-21T08:53:21.258Z,58.50
2019-03-21T08:55:49.511Z,48.05
2019-03-21T08:58:17.731Z,45.35
2019-03-21T09:00:45.958Z,44.98
2019-03-21T09:03:14.187Z,44.67
2019-03-21T09:05:42.407Z,45.48
2019-03-21T09:08:10.628Z,43.05
2019-03-21T09:10:38.847Z,44.40
2019-03-21T09:13:07.075Z,38.92
2019-03-21T09:15:35.291Z,37.83
2019-03-21T09:18:03.573Z,36.45
2019-03-21T09:20:31.819Z,34.05
2019-03-21T09:23:00.055Z,33.02
2019-03-21T09:25:28.275Z,33.33
2019-03-21T09:28:02.531Z,32.70
2019-03-21T09:30:26.511Z,32.23
2019-03-21T09:32:54.781Z,34.75
2019-03-21T09:35:23.010Z,32.28
2019-03-21T09:37:51.220Z,34.20
2019-03-21T09:40:19.467Z,28.73
2019-03-21T09:42:47.677Z,33.15
2019-03-21T09:45:15.918Z,39.20
2019-03-21T09:47:44.141Z,33.85
2019-03-21T09:50:15.635Z,37.80
2019-03-21T09:52:43.868Z,36.85
2019-03-21T09:55:12.095Z,36.17
2019-03-21T09:57:40.323Z,36.83
2019-03-21T10:00:10.081Z,36.98
2019-03-21T10:02:38.294Z,38.95
2019-03-21T10:05:08.139Z,39.53
2019-03-21T10:07:36.374Z,42.58
2019-03-21T10:10:06.368Z,39.60
2019-03-21T10:12:34.609Z,40.88
2019-03-21T10:15:03.396Z,42.40
2019-03-21T10:17:31.619Z,39.35
2019-03-21T10:19:59.851Z,46.30
2019-03-21T10:22:28.847Z,47.60
2019-03-21T10:24:57.071Z,37.73
2019-03-21T10:27:25.294Z,43.63
2019-03-21T10:29:53.504Z,41.65
2019-03-21T10:32:21.731Z,44.33
2019-03-21T10:34:49.984Z,44.30
2019-03-21T10:37:18.238Z,44.50
2019-03-21T10:39:46.469Z,45.63
2019-03-21T10:42:14.713Z,48.40
2019-03-21T10:44:42.937Z,43.20
2019-03-21T10:47:11.173Z,46.33
2019-03-21T10:49:39.392Z,45.25
2019-03-21T10:52:07.626Z,44.88
2019-03-21T10:54:35.840Z,46.77
2019-03-21T10:57:04.076Z,44.40
2019-03-21T10:59:32.302Z,41.65
2019-03-21T11:02:07.355Z,43.35
2019-03-21T11:04:30.472Z,44.93
2019-03-21T11:07:00.796Z,41.77
2019-03-21T11:09:29.968Z,36.23
2019-03-21T11:11:59.760Z,41.88
2019-03-21T11:14:28.444Z,38.08
2019-03-21T11:16:57.142Z,39.20
2019-03-21T11:19:25.360Z,37.08
2019-03-21T11:21:53.589Z,37.80
2019-03-21T11:24:21.807Z,35.45
2019-03-21T11:26:50.031Z,37.30
2019-03-21T11:29:18.269Z,35.10
2019-03-21T11:31:46.493Z,37.70
2019-03-21T11:34:14.723Z,42.05
2019-03-21T11:36:42.940Z,43.17
2019-03-21T11:39:11.176Z,39.90
2019-03-21T11:41:39.406Z,40.60
2019-03-21T11:44:07.681Z,36.83
2019-03-21T11:46:35.929Z,38.30
2019-03-21T11:49:04.159Z,38.15
2019-03-21T11:51:32.361Z,37.97
2019-03-21T11:54:00.587Z,36.30
2019-03-21T11:56:29.627Z,40.28
2019-03-21T11:58:57.847Z,37.65
2019-03-21T12:01:26.098Z,37.63
2019-03-21T12:03:54.319Z,34.95
2019-03-21T12:06:22.551Z,34.33
2019-03-21T12:08:50.773Z,42.05
2019-03-21T12:11:21.144Z,38.30
2019-03-21T12:13:48.970Z,33.07
2019-03-21T12:16:17.181Z,35.70
2019-03-21T12:18:45.397Z,37.08
2019-03-21T12:21:13.678Z,30.17
2019-03-21T12:23:41.908Z,30.45
2019-03-21T12:26:10.119Z,27.90
2019-03-21T12:28:38.460Z,25.75
2019-03-21T12:31:06.679Z,24.15
2019-03-21T12:33:34.900Z,24.63
2019-03-21T12:36:03.125Z,24.35
2019-03-21T12:38:31.410Z,26.77
2019-03-21T12:40:59.821Z,24.15
2019-03-21T12:43:28.080Z,25.95
2019-03-21T12:45:56.393Z,24.80
2019-03-21T12:48:24.614Z,24.63
2019-03-21T12:50:52.856Z,22.48
2019-03-21T12:53:21.081Z,24.12
2019-03-21T12:55:49.306Z,22.58
2019-03-21T12:58:17.532Z,21.12
2019-03-21T13:00:45.809Z,25.15
2019-03-21T13:03:13.993Z,23.07
2019-03-21T13:05:42.289Z,21.75
2019-03-21T13:08:10.512Z,23.87
2019-03-21T13:10:38.733Z,19.60
2019-03-21T13:13:06.958Z,20.92
2019-03-21T13:15:35.166Z,24.23
2019-03-21T13:18:03.881Z,21.48
2019-03-21T13:20:32.096Z,24.65
2019-03-21T13:23:00.314Z,24.40
2019-03-21T13:25:28.531Z,22.00
2019-03-21T13:27:56.772Z,22.73
2019-03-21T13:30:25.003Z,20.72
2019-03-21T13:32:53.222Z,24.55
2019-03-21T13:35:32.104Z,26.23
2019-03-21T13:37:53.827Z,19.73
2019-03-21T13:40:21.326Z,20.50
2019-03-21T13:42:49.546Z,20.52
2019-03-21T13:45:17.766Z,20.88
2019-03-21T13:47:45.990Z,27.90
2019-03-21T13:50:14.218Z,21.30
2019-03-21T13:52:42.438Z,20.70
2019-03-21T13:55:11.434Z,22.52
2019-03-21T13:57:39.663Z,21.02
2019-03-21T14:00:19.393Z,21.10
2019-03-21T14:02:47.642Z,21.00
2019-03-21T14:05:15.888Z,21.45
2019-03-21T14:07:44.102Z,21.37
2019-03-21T14:10:12.335Z,21.37
2019-03-21T14:12:40.559Z,20.72
2019-03-21T14:15:13.699Z,22.98
2019-03-21T14:17:41.986Z,20.57
2019-03-21T14:20:11.341Z,26.57
2019-03-21T14:22:39.564Z,24.15
2019-03-21T14:25:07.797Z,22.87
2019-03-21T14:27:36.017Z,21.73
2019-03-21T14:30:10.174Z,23.40
2019-03-21T14:32:38.393Z,23.02
2019-03-21T14:35:07.374Z,26.37
2019-03-21T14:37:35.619Z,26.87
2019-03-21T14:40:08.867Z,26.77
2019-03-21T14:42:37.199Z,27.65
2019-03-21T14:45:07.418Z,28.83
2019-03-21T14:47:36.524Z,26.70
2019-03-21T14:50:13.713Z,30.53
2019-03-21T14:52:41.931Z,31.65
2019-03-21T14:55:11.697Z,24.65
2019-03-21T14:57:39.987Z,29.12
2019-03-21T15:00:13.906Z,29.77
2019-03-21T15:02:42.131Z,30.45
2019-03-21T15:05:10.346Z,28.53
2019-03-21T15:07:38.574Z,26.97
2019-03-21T15:10:14.853Z,30.43
2019-03-21T15:12:43.085Z,25.50
2019-03-21T15:15:13.138Z,26.10
2019-03-21T15:17:41.357Z,22.87
2019-03-21T15:20:12.014Z,24.52
2019-03-21T15:22:40.229Z,24.80
2019-03-21T15:25:09.454Z,27.98
2019-03-21T15:27:37.665Z,23.80
2019-03-21T15:30:19.754Z,26.93
2019-03-21T15:32:48.080Z,22.05
2019-03-21T15:35:17.141Z,25.05
2019-03-21T15:37:45.366Z,23.15
2019-03-21T15:40:14.722Z,23.52
2019-03-21T15:42:42.945Z,22.62
2019-03-21T15:45:22.622Z,23.75
2019-03-21T15:47:46.887Z,23.10
2019-03-21T15:50:37.774Z,24.40
2019-03-21T15:53:05.857Z,29.80
2019-03-21T15:55:34.083Z,27.80
2019-03-21T15:58:02.332Z,28.15
2019-03-21T16:00:35.394Z,25.55
2019-03-21T16:03:04.868Z,23.27
2019-03-21T16:05:33.086Z,23.62
2019-03-21T16:08:01.302Z,27.52
2019-03-21T16:10:29.539Z,25.35
2019-03-21T16:12:57.758Z,28.42
2019-03-21T16:15:25.981Z,27.10
2019-03-21T16:17:54.202Z,29.30
2019-03-21T16:20:22.432Z,28.75
2019-03-21T16:22:50.641Z,26.87
2019-03-21T16:25:18.858Z,24.30
2019-03-21T16:27:47.082Z,30.72
2019-03-21T16:30:15.299Z,25.23
2019-03-21T16:32:43.526Z,35.30
2019-03-21T16:35:11.771Z,24.85
2019-03-21T16:37:39.991Z,29.77
2019-03-21T16:40:15.957Z,29.50
2019-03-21T16:42:44.176Z,30.57
2019-03-21T16:45:13.943Z,32.25
2019-03-21T16:47:42.158Z,27.48
2019-03-21T16:50:13.683Z,26.85
2019-03-21T16:52:41.906Z,23.60
2019-03-21T16:55:12.592Z,27.85
2019-03-21T16:57:40.780Z,28.70
2019-03-21T17:00:14.349Z,27.27
2019-03-21T17:02:42.579Z,28.70
2019-03-21T17:05:11.169Z,27.37
2019-03-21T17:07:39.400Z,28.62
2019-03-21T17:10:09.805Z,23.42
2019-03-21T17:12:40.611Z,27.47
2019-03-21T17:15:09.186Z,30.03
2019-03-21T17:17:37.409Z,28.67
2019-03-21T17:20:08.137Z,28.55
2019-03-21T17:22:36.411Z,25.75
2019-03-21T17:25:06.436Z,27.22
2019-03-21T17:27:34.658Z,27.47
2019-03-21T17:30:02.974Z,26.30
2019-03-21T17:32:31.582Z,24.85
2019-03-21T17:34:59.821Z,29.00
2019-03-21T17:37:28.034Z,24.20
2019-03-21T17:39:56.257Z,27.82
2019-03-21T17:42:24.478Z,32.55
2019-03-21T17:44:52.721Z,26.65
2019-03-21T17:47:20.937Z,26.65
2019-03-21T17:49:49.159Z,25.90
2019-03-21T17:52:17.392Z,25.33
2019-03-21T17:54:45.619Z,28.60
2019-03-21T17:57:13.847Z,28.77
2019-03-21T17:59:42.069Z,26.65
2019-03-21T18:02:10.327Z,28.55
2019-03-21T18:04:38.531Z,27.13
2019-03-21T18:07:07.592Z,26.17
2019-03-21T18:09:35.814Z,29.48
2019-03-21T18:12:04.029Z,26.20
2019-03-21T18:14:32.257Z,26.97
2019-03-21T18:17:01.463Z,30.50
2019-03-21T18:19:29.698Z,26.82
2019-03-21T18:21:57.930Z,27.00
2019-03-21T18:24:26.155Z,33.75
2019-03-21T18:26:54.379Z,30.55
2019-03-21T18:29:22.595Z,31.95
2019-03-21T18:31:50.852Z,31.30
2019-03-21T18:34:19.075Z,29.92
2019-03-21T18:36:47.316Z,29.42
2019-03-21T18:39:15.549Z,32.48
2019-03-21T18:41:43.775Z,32.67
2019-03-21T18:44:12.011Z,32.25
2019-03-21T18:46:40.239Z,31.70
2019-03-21T18:49:08.455Z,32.78
2019-03-21T18:51:36.693Z,32.73
2019-03-21T18:54:04.920Z,30.70
2019-03-21T18:56:33.160Z,32.20
2019-03-21T18:59:01.771Z,31.52
2019-03-21T19:01:29.997Z,32.73
2019-03-21T19:03:58.218Z,34.63
2019-03-21T19:06:26.451Z,32.45
2019-03-21T19:08:54.680Z,36.53
2019-03-21T19:11:23.034Z,35.10
2019-03-21T19:13:51.251Z,34.30
2019-03-21T19:16:19.634Z,32.13
2019-03-21T19:18:47.852Z,36.90
2019-03-21T19:21:16.073Z,33.93
2019-03-21T19:23:44.311Z,35.85
2019-03-21T19:26:12.536Z,32.65
2019-03-21T19:28:40.754Z,36.73
2019-03-21T19:31:08.975Z,31.62
2019-03-21T19:33:37.193Z,35.75
2019-03-21T19:36:05.420Z,36.33
2019-03-21T19:38:33.678Z,36.53
2019-03-21T19:41:01.908Z,40.43
2019-03-21T19:43:30.153Z,35.05
2019-03-21T19:45:58.396Z,35.70
2019-03-21T19:48:26.594Z,37.75
2019-03-21T19:50:54.843Z,37.13
2019-03-21T19:53:23.063Z,43.02
2019-03-21T19:55:51.296Z,43.08
2019-03-21T19:58:19.517Z,42.65
2019-03-21T20:00:47.752Z,40.35
2019-03-21T20:03:15.978Z,45.23
2019-03-21T20:05:44.192Z,45.50
2019-03-21T20:08:12.418Z,45.78
2019-03-21T20:10:40.662Z,45.48
2019-03-21T20:13:08.886Z,43.07
2019-03-21T20:15:37.197Z,45.45
2019-03-21T20:18:05.578Z,45.48
2019-03-21T20:20:33.799Z,39.38
2019-03-21T20:23:02.019Z,41.48
2019-03-21T20:25:41.888Z,44.73
2019-03-21T20:28:00.331Z,50.40
2019-03-21T20:30:28.573Z,47.73
2019-03-21T20:32:56.793Z,49.67
2019-03-21T20:35:25.016Z,44.83
2019-03-21T20:37:53.263Z,44.77
2019-03-21T20:40:21.481Z,44.53
2019-03-21T20:42:49.709Z,45.85
2019-03-21T20:45:19.689Z,46.95
2019-03-21T20:47:47.907Z,44.30
2019-03-21T20:50:16.206Z,49.63
2019-03-21T20:52:44.428Z,43.30
2019-03-21T20:55:12.656Z,44.05
2019-03-21T20:57:40.878Z,48.73
2019-03-21T21:00:15.094Z,46.63
2019-03-21T21:02:43.321Z,48.33
2019-03-21T21:05:11.545Z,47.13
2019-03-21T21:07:39.812Z,48.92
2019-03-21T21:10:09.212Z,50.45
2019-03-21T21:12:37.518Z,45.85
2019-03-21T21:15:07.200Z,51.85
2019-03-21T21:17:35.422Z,47.67
2019-03-21T21:20:06.182Z,44.90
2019-03-21T21:22:34.426Z,46.90
2019-03-21T21:25:02.663Z,48.38
2019-03-21T21:27:30.921Z,50.10
2019-03-21T21:29:59.188Z,55.25
2019-03-21T21:32:27.405Z,51.70
2019-03-21T21:34:55.654Z,52.88
2019-03-21T21:37:23.894Z,52.90
2019-03-21T21:39:52.172Z,50.43
2019-03-21T21:42:20.427Z,53.50
2019-03-21T21:44:48.684Z,53.87
2019-03-21T21:47:16.898Z,53.42
2019-03-21T21:49:45.131Z,53.78
2019-03-21T21:52:13.357Z,55.00
2019-03-21T21:54:41.583Z,53.48
2019-03-21T21:57:09.822Z,57.15
2019-03-21T21:59:38.042Z,54.00
2019-03-21T22:02:06.287Z,54.95
2019-03-21T22:04:34.526Z,50.78
2019-03-21T22:07:02.760Z,56.25
2019-03-21T22:09:30.982Z,53.55
2019-03-21T22:11:59.250Z,62.23
2019-03-21T22:14:27.455Z,57.80
2019-03-21T22:16:55.677Z,56.47
2019-03-21T22:19:23.903Z,54.85
2019-03-21T22:21:52.119Z,58.75
2019-03-21T22:24:20.347Z,59.60
2019-03-21T22:26:48.569Z,59.43
2019-03-21T22:29:16.794Z,61.10
2019-03-21T22:31:45.018Z,54.03
2019-03-21T22:34:13.273Z,61.83
2019-03-21T22:36:49.216Z,58.70
2019-03-21T22:39:11.425Z,65.50
2019-03-21T22:41:39.647Z,58.60
2019-03-21T22:44:08.199Z,60.95
2019-03-21T22:46:36.403Z,61.50
2019-03-21T22:49:04.642Z,66.70
2019-03-21T22:51:32.918Z,58.80
2019-03-21T22:54:01.138Z,64.20
2019-03-21T22:56:40.566Z,67.00
2019-03-21T22:58:59.308Z,56.23
2019-03-21T23:01:27.524Z,66.50
2019-03-21T23:03:55.755Z,65.22
2019-03-21T23:06:23.969Z,65.87
2019-03-21T23:08:52.214Z,64.32
2019-03-21T23:11:20.433Z,64.07
2019-03-21T23:13:48.677Z,66.80
2019-03-21T23:16:16.895Z,66.92
2019-03-21T23:18:45.126Z,64.90
2019-03-21T23:21:13.360Z,71.30
2019-03-21T23:23:41.585Z,60.17
2019-03-21T23:26:09.822Z,63.57
2019-03-21T23:28:38.508Z,69.47
2019-03-21T23:31:06.739Z,70.20
2019-03-21T23:33:34.971Z,64.85
2019-03-21T23:36:03.207Z,64.53
2019-03-21T23:38:31.420Z,65.32
2019-03-21T23:40:59.642Z,59.33
2019-03-21T23:43:27.863Z,64.53
2019-03-21T23:45:56.728Z,60.43
2019-03-21T23:48:24.961Z,64.03
2019-03-21T23:50:53.182Z,62.47
2019-03-21T23:53:21.400Z,64.43
2019-03-21T23:55:49.674Z,63.53
2019-03-21T23:58:17.895Z,61.55
